createdAt,value
2022-11-01T00:00:53.317Z,101297.00
2022-11-01T00:03:57.346Z,101287.56
2022-11-01T00:07:01.220Z,101283.03
2022-11-01T00:10:05.407Z,101274.47
2022-11-01T00:13:09.054Z,101270.09
2022-11-01T00:16:15.613Z,101275.41
2022-11-01T00:19:19.553Z,101269.38
2022-11-01T00:22:23.197Z,101271.06
2022-11-01T00:25:26.726Z,101261.50
2022-11-01T00:28:31.674Z,101260.59
2022-11-01T00:31:36.694Z,101254.34
2022-11-01T00:34:40.301Z,101252.53
2022-11-01T00:37:43.943Z,101239.44
2022-11-01T00:40:47.986Z,101253.34
2022-11-01T00:43:51.618Z,101241.22
2022-11-01T00:46:56.609Z,101235.88
2022-11-01T00:50:00.192Z,101227.88
2022-11-01T00:53:04.032Z,101222.53
2022-11-01T00:56:09.532Z,101211.06
2022-11-01T00:59:13.059Z,101209.28
2022-11-01T01:02:18.081Z,101204.78
2022-11-01T01:05:21.989Z,101219.63
2022-11-01T01:08:26.609Z,101208.22
2022-11-01T01:11:30.537Z,101195.88
2022-11-01T01:14:34.175Z,101188.97
2022-11-01T01:17:39.450Z,101184.44
2022-11-01T01:20:43.503Z,101207.91
2022-11-01T01:23:48.757Z,101195.53
2022-11-01T01:26:52.994Z,101205.06
2022-11-01T01:29:56.937Z,101186.50
2022-11-01T01:33:02.087Z,101183.81
2022-11-01T01:36:07.738Z,101181.69
2022-11-01T01:39:11.473Z,101166.56
2022-11-01T01:42:25.047Z,101159.19
2022-11-01T01:45:37.592Z,101161.63
2022-11-01T01:48:46.002Z,101165.63
2022-11-01T01:51:49.634Z,101165.22
2022-11-01T01:54:53.709Z,101158.34
2022-11-01T01:57:59.286Z,101159.16
2022-11-01T02:01:03.078Z,101164.19
2022-11-01T02:04:19.063Z,101156.31
2022-11-01T02:07:22.726Z,101157.25
2022-11-01T02:10:27.011Z,101145.00
2022-11-01T02:13:32.398Z,101143.16
2022-11-01T02:16:56.255Z,101124.81
2022-11-01T02:20:34.440Z,101121.38
2022-11-01T02:24:29.103Z,101108.91
2022-11-01T02:27:52.925Z,101109.78
2022-11-01T02:31:17.720Z,101105.19
2022-11-01T02:34:35.301Z,101111.31
2022-11-01T02:37:52.452Z,101100.94
2022-11-01T02:41:07.556Z,101102.50
2022-11-01T02:44:18.232Z,101082.50
2022-11-01T02:47:22.789Z,101087.78
2022-11-01T02:50:34.845Z,101078.09
2022-11-01T02:53:38.798Z,101078.16
2022-11-01T02:56:42.667Z,101065.84
2022-11-01T02:59:49.674Z,101064.63
2022-11-01T03:03:00.808Z,101075.06
2022-11-01T03:06:16.343Z,101076.25
2022-11-01T03:09:20.189Z,101080.78
2022-11-01T03:15:50.194Z,101070.44
2022-11-01T03:19:25.955Z,101075.53
2022-11-01T03:22:44.053Z,101080.78
2022-11-01T03:25:54.795Z,101074.72
2022-11-01T03:29:04.326Z,101066.81
2022-11-01T03:32:10.899Z,101067.00
2022-11-01T03:35:23.013Z,101065.34
2022-11-01T03:38:34.268Z,101056.28
2022-11-01T03:41:45.972Z,101057.50
2022-11-01T03:44:55.809Z,101045.38
2022-11-01T03:47:59.622Z,101051.16
2022-11-01T03:51:03.522Z,101048.78
2022-11-01T03:54:11.390Z,101052.06
2022-11-01T03:57:15.085Z,101055.56
2022-11-01T04:00:22.180Z,101058.13
2022-11-01T04:03:25.710Z,101054.59
2022-11-01T04:06:29.427Z,101056.34
2022-11-01T04:09:34.317Z,101053.66
2022-11-01T04:12:37.951Z,101043.97
2022-11-01T04:15:58.660Z,101046.28
2022-11-01T04:19:19.803Z,101039.41
2022-11-01T04:22:24.645Z,101046.00
2022-11-01T04:25:30.402Z,101049.09
2022-11-01T04:28:34.020Z,101054.22
2022-11-01T04:31:38.674Z,101067.19
2022-11-01T04:34:44.933Z,101072.06
2022-11-01T04:37:49.018Z,101068.53
2022-11-01T04:40:53.999Z,101080.63
2022-11-01T04:44:00.258Z,101077.66
2022-11-01T04:47:03.842Z,101071.75
2022-11-01T04:50:08.244Z,101072.41
2022-11-01T04:53:12.014Z,101055.28
2022-11-01T04:56:16.991Z,101058.75
2022-11-01T04:59:20.565Z,101067.63
2022-11-01T05:02:25.752Z,101063.25
2022-11-01T05:05:29.393Z,101068.22
2022-11-01T05:08:33.111Z,101060.19
2022-11-01T05:11:38.085Z,101058.59
2022-11-01T05:14:41.730Z,101044.47
2022-11-01T05:17:45.389Z,101044.53
2022-11-01T05:20:49.054Z,101054.13
2022-11-01T05:23:52.663Z,101041.16
2022-11-01T05:26:58.122Z,101045.88
2022-11-01T05:30:01.927Z,101041.56
2022-11-01T05:33:07.682Z,101046.22
2022-11-01T05:36:11.393Z,101038.38
2022-11-01T05:39:15.000Z,101043.03
2022-11-01T05:42:19.909Z,101042.81
2022-11-01T05:45:23.583Z,101050.81
2022-11-01T05:48:27.110Z,101045.44
2022-11-01T05:51:30.710Z,101044.41
2022-11-01T05:54:34.351Z,101050.56
2022-11-01T05:57:39.423Z,101047.81
2022-11-01T06:00:43.217Z,101059.16
2022-11-01T06:03:51.558Z,101057.25
2022-11-01T06:06:55.158Z,101057.25
2022-11-01T06:09:58.783Z,101069.31
2022-11-01T06:13:04.621Z,101077.44
2022-11-01T06:16:09.504Z,101073.03
2022-11-01T06:19:13.278Z,101066.88
2022-11-01T06:22:16.976Z,101067.50
2022-11-01T06:25:21.043Z,101080.94
2022-11-01T06:28:26.026Z,101069.38
2022-11-01T06:31:29.774Z,101067.78
2022-11-01T06:34:33.755Z,101069.22
2022-11-01T06:37:37.295Z,101073.03
2022-11-01T06:40:40.862Z,101081.72
2022-11-01T06:43:45.875Z,101074.69
2022-11-01T06:46:49.549Z,101081.09
2022-11-01T06:49:53.189Z,101087.38
2022-11-01T06:52:58.669Z,101089.06
2022-11-01T06:56:03.072Z,101098.56
2022-11-01T06:59:08.413Z,101102.22
2022-11-01T07:02:14.560Z,101110.13
2022-11-01T07:05:18.677Z,101109.63
2022-11-01T07:08:22.374Z,101115.09
2022-11-01T07:11:30.985Z,101115.88
2022-11-01T07:14:36.666Z,101124.41
2022-11-01T07:17:40.431Z,101119.19
2022-11-01T07:20:44.133Z,101133.09
2022-11-01T07:23:48.024Z,101126.88
2022-11-01T07:26:51.583Z,101135.19
2022-11-01T07:29:56.611Z,101136.91
2022-11-01T07:33:03.507Z,101126.69
2022-11-01T07:36:09.948Z,101132.03
2022-11-01T07:39:13.730Z,101135.00
2022-11-01T07:42:17.299Z,101141.44
2022-11-01T07:45:35.089Z,101145.59
2022-11-01T07:48:39.309Z,101135.22
2022-11-01T07:51:42.914Z,101141.13
2022-11-01T07:54:46.500Z,101136.59
2022-11-01T07:57:52.321Z,101150.94
2022-11-01T08:00:57.641Z,101149.84
2022-11-01T08:04:01.190Z,101141.59
2022-11-01T08:07:04.806Z,101143.78
2022-11-01T08:10:10.883Z,101154.47
2022-11-01T08:13:18.710Z,101158.69
2022-11-01T08:16:23.678Z,101162.25
2022-11-01T08:19:27.252Z,101161.19
2022-11-01T08:22:31.070Z,101166.19
2022-11-01T08:25:35.621Z,101169.63
2022-11-01T08:28:39.837Z,101167.50
2022-11-01T08:31:45.419Z,101177.94
2022-11-01T08:34:49.694Z,101183.00
2022-11-01T08:37:54.999Z,101195.72
2022-11-01T08:40:59.989Z,101188.94
2022-11-01T08:44:03.540Z,101199.78
2022-11-01T08:47:08.613Z,101199.75
2022-11-01T08:50:15.078Z,101204.88
2022-11-01T08:53:19.681Z,101211.53
2022-11-01T08:56:24.630Z,101209.59
2022-11-01T08:59:28.298Z,101217.38
2022-11-01T09:02:33.348Z,101222.38
2022-11-01T09:05:37.646Z,101226.88
2022-11-01T09:08:41.250Z,101229.22
2022-11-01T09:11:44.937Z,101236.06
2022-11-01T09:14:49.167Z,101234.50
2022-11-01T09:17:54.360Z,101243.34
2022-11-01T09:20:58.306Z,101242.44
2022-11-01T09:24:02.170Z,101220.94
2022-11-01T09:27:07.678Z,101228.22
2022-11-01T09:30:13.015Z,101224.94
2022-11-01T09:33:18.710Z,101228.50
2022-11-01T09:36:22.547Z,101236.59
2022-11-01T09:39:26.533Z,101228.66
2022-11-01T09:42:34.585Z,101233.22
2022-11-01T09:45:38.720Z,101246.22
2022-11-01T09:48:46.509Z,101256.00
2022-11-01T09:51:50.256Z,101254.72
2022-11-01T09:54:54.296Z,101267.88
2022-11-01T09:58:05.770Z,101262.75
2022-11-01T10:01:31.140Z,101262.88
2022-11-01T10:04:58.563Z,101290.50
2022-11-01T10:08:12.515Z,101287.84
2022-11-01T10:11:54.028Z,101294.81
2022-11-01T10:15:21.740Z,101315.75
2022-11-01T10:18:30.210Z,101308.81
2022-11-01T10:21:44.704Z,101309.53
2022-11-01T10:24:53.897Z,101305.38
2022-11-01T10:28:10.811Z,101316.59
2022-11-01T10:31:21.418Z,101319.25
2022-11-01T10:34:33.374Z,101322.47
2022-11-01T10:38:03.931Z,101327.25
2022-11-01T10:41:25.230Z,101329.19
2022-11-01T10:44:35.022Z,101338.97
2022-11-01T10:47:42.827Z,101347.63
2022-11-01T10:50:47.830Z,101347.13
2022-11-01T10:53:58.689Z,101343.41
2022-11-01T10:57:10.608Z,101345.28
2022-11-01T11:00:20.151Z,101353.97
2022-11-01T11:03:32.759Z,101353.56
2022-11-01T11:06:38.281Z,101346.53
2022-11-01T11:09:43.279Z,101349.97
2022-11-01T11:12:50.931Z,101360.69
2022-11-01T11:16:00.542Z,101365.91
2022-11-01T11:19:19.608Z,101355.25
2022-11-01T11:22:26.528Z,101356.28
2022-11-01T11:25:38.561Z,101359.53
2022-11-01T11:28:48.973Z,101365.72
2022-11-01T11:31:59.317Z,101365.06
2022-11-01T11:35:08.832Z,101378.84
2022-11-01T11:38:15.907Z,101379.56
2022-11-01T11:41:32.969Z,101375.34
2022-11-01T11:44:45.411Z,101379.41
2022-11-01T11:47:49.829Z,101380.56
2022-11-01T11:51:04.482Z,101383.53
2022-11-01T11:54:28.941Z,101401.63
2022-11-01T11:57:34.421Z,101402.28
2022-11-01T12:00:39.501Z,101402.78
2022-11-01T12:03:51.407Z,101413.38
2022-11-01T12:06:54.967Z,101411.03
2022-11-01T12:10:03.115Z,101412.63
2022-11-01T12:13:27.669Z,101411.50
2022-11-01T12:16:31.856Z,101412.41
2022-11-01T12:19:35.429Z,101410.66
2022-11-01T12:22:45.084Z,101403.28
2022-11-01T12:25:51.500Z,101405.59
2022-11-01T12:29:19.132Z,101398.97
2022-11-01T12:32:30.358Z,101400.88
2022-11-01T12:35:42.529Z,101408.56
2022-11-01T12:38:52.390Z,101413.72
2022-11-01T12:42:02.341Z,101406.78
2022-11-01T12:45:20.834Z,101406.09
2022-11-01T12:48:31.946Z,101408.28
2022-11-01T12:51:45.501Z,101413.94
2022-11-01T12:55:05.351Z,101416.50
2022-11-01T12:58:16.760Z,101417.34
2022-11-01T13:01:38.007Z,101424.28
2022-11-01T13:04:55.072Z,101419.44
2022-11-01T13:08:17.231Z,101434.56
2022-11-01T13:11:31.317Z,101421.31
2022-11-01T13:14:58.397Z,101429.91
2022-11-01T13:18:16.973Z,101426.28
2022-11-01T13:21:35.890Z,101424.81
2022-11-01T13:24:48.157Z,101421.66
2022-11-01T13:28:06.704Z,101424.31
2022-11-01T13:31:28.663Z,101426.28
2022-11-01T13:35:17.795Z,101430.25
2022-11-01T13:38:33.502Z,101430.16
2022-11-01T13:41:45.483Z,101441.19
2022-11-01T13:44:58.761Z,101445.53
2022-11-01T13:48:19.291Z,101444.75
2022-11-01T13:51:43.710Z,101445.03
2022-11-01T13:54:59.285Z,101446.13
2022-11-01T13:58:04.207Z,101447.19
2022-11-01T14:01:32.260Z,101444.53
2022-11-01T14:04:39.934Z,101440.88
2022-11-01T14:08:16.151Z,101441.81
2022-11-01T14:11:48.884Z,101440.59
2022-11-01T14:14:55.776Z,101437.44
2022-11-01T14:18:10.167Z,101442.03
2022-11-01T14:21:32.099Z,101444.88
2022-11-01T14:24:55.049Z,101446.00
2022-11-01T14:28:22.502Z,101443.66
2022-11-01T14:31:33.812Z,101451.56
2022-11-01T14:34:39.429Z,101450.69
2022-11-01T14:37:48.341Z,101443.66
2022-11-01T14:40:57.689Z,101449.84
2022-11-01T14:44:11.926Z,101457.50
2022-11-01T14:47:31.941Z,101450.50
2022-11-01T14:50:50.444Z,101462.41
2022-11-01T14:54:03.702Z,101467.16
2022-11-01T14:57:26.859Z,101474.03
2022-11-01T15:00:33.333Z,101469.06
2022-11-01T15:03:36.971Z,101469.25
2022-11-01T15:06:44.784Z,101475.66
2022-11-01T15:09:59.005Z,101469.13
2022-11-01T15:13:05.597Z,101473.22
2022-11-01T15:16:18.768Z,101474.34
2022-11-01T15:19:28.402Z,101473.03
2022-11-01T15:22:34.801Z,101469.16
2022-11-01T15:25:38.749Z,101470.25
2022-11-01T15:28:49.299Z,101466.44
2022-11-01T15:31:59.101Z,101472.03
2022-11-01T15:35:20.186Z,101473.06
2022-11-01T15:38:24.215Z,101475.72
2022-11-01T15:41:31.166Z,101479.72
2022-11-01T15:44:36.273Z,101476.66
2022-11-01T15:47:46.462Z,101475.38
2022-11-01T15:50:56.797Z,101483.16
2022-11-01T15:54:14.419Z,101482.72
2022-11-01T15:57:24.556Z,101476.88
2022-11-01T16:00:36.881Z,101484.25
2022-11-01T16:03:49.550Z,101484.63
2022-11-01T16:06:59.594Z,101492.41
2022-11-01T16:10:06.166Z,101492.34
2022-11-01T16:13:18.981Z,101494.69
2022-11-01T16:16:25.813Z,101498.78
2022-11-01T16:19:42.251Z,101504.59
2022-11-01T16:22:48.869Z,101504.78
2022-11-01T16:26:03.600Z,101500.22
2022-11-01T16:29:07.231Z,101505.09
2022-11-01T16:32:21.538Z,101502.72
2022-11-01T16:35:33.750Z,101510.56
2022-11-01T16:38:44.516Z,101508.41
2022-11-01T16:41:49.256Z,101508.41
2022-11-01T16:44:57.667Z,101518.72
2022-11-01T16:48:02.872Z,101528.97
2022-11-01T16:51:07.402Z,101533.16
2022-11-01T16:54:12.683Z,101524.31
2022-11-01T16:57:26.392Z,101521.34
2022-11-01T17:00:30.041Z,101529.63
2022-11-01T17:03:35.102Z,101531.03
2022-11-01T17:06:39.411Z,101532.88
2022-11-01T17:09:43.197Z,101536.53
2022-11-01T17:12:47.059Z,101541.81
2022-11-01T17:15:52.931Z,101542.81
2022-11-01T17:19:01.301Z,101541.75
2022-11-01T17:22:09.854Z,101535.03
2022-11-01T17:25:20.221Z,101536.84
2022-11-01T17:28:25.057Z,101540.59
2022-11-01T17:31:30.511Z,101542.38
2022-11-01T17:34:35.582Z,101543.41
2022-11-01T17:37:41.053Z,101544.38
2022-11-01T17:40:46.510Z,101536.38
2022-11-01T17:43:50.187Z,101548.09
2022-11-01T17:46:53.766Z,101544.66
2022-11-01T17:49:59.059Z,101551.84
2022-11-01T17:53:03.179Z,101557.06
2022-11-01T17:56:08.473Z,101555.72
2022-11-01T17:59:12.247Z,101538.00
2022-11-01T18:02:16.071Z,101540.38
2022-11-01T18:05:21.278Z,101542.56
2022-11-01T18:08:29.042Z,101543.72
2022-11-01T18:11:43.144Z,101557.78
2022-11-01T18:14:58.964Z,101553.72
2022-11-01T18:18:26.976Z,101562.50
2022-11-01T18:21:56.192Z,101558.13
2022-11-01T18:25:06.294Z,101573.44
2022-11-01T18:28:15.101Z,101576.16
2022-11-01T18:31:27.133Z,101572.53
2022-11-01T18:34:40.563Z,101578.84
2022-11-01T18:38:00.763Z,101572.81
2022-11-01T18:41:10.632Z,101577.94
2022-11-01T18:44:17.050Z,101582.63
2022-11-01T18:47:26.029Z,101581.66
2022-11-01T18:50:31.168Z,101579.81
2022-11-01T18:53:37.043Z,101576.97
2022-11-01T18:56:44.817Z,101578.00
2022-11-01T18:59:50.237Z,101575.50
2022-11-01T19:02:58.707Z,101580.84
2022-11-01T19:06:20.671Z,101592.44
2022-11-01T19:09:29.130Z,101579.25
2022-11-01T19:12:39.476Z,101598.78
2022-11-01T19:15:43.234Z,101592.91
2022-11-01T19:18:49.822Z,101592.91
2022-11-01T19:21:58.922Z,101596.41
2022-11-01T19:25:15.039Z,101598.44
2022-11-01T19:28:38.747Z,101593.28
2022-11-01T19:31:47.698Z,101590.84
2022-11-01T19:34:53.646Z,101605.97
2022-11-01T19:37:58.326Z,101603.53
2022-11-01T19:41:04.007Z,101594.00
2022-11-01T19:44:21.779Z,101595.81
2022-11-01T19:47:41.750Z,101596.91
2022-11-01T19:50:47.964Z,101601.16
2022-11-01T19:53:53.455Z,101595.50
2022-11-01T19:57:02.311Z,101596.91
2022-11-01T20:00:20.244Z,101598.50
2022-11-01T20:03:35.493Z,101590.13
2022-11-01T20:06:49.629Z,101590.38
2022-11-01T20:09:58.425Z,101584.19
2022-11-01T20:13:04.597Z,101584.25
2022-11-01T20:16:09.556Z,101588.78
2022-11-01T20:19:17.385Z,101584.97
2022-11-01T20:22:22.662Z,101584.84
2022-11-01T20:25:30.046Z,101591.88
2022-11-01T20:28:36.307Z,101589.53
2022-11-01T20:31:40.688Z,101586.97
2022-11-01T20:34:44.637Z,101577.22
2022-11-01T20:37:48.731Z,101587.63
2022-11-01T20:40:53.322Z,101579.00
2022-11-01T20:43:58.678Z,101571.72
2022-11-01T20:47:02.290Z,101577.00
2022-11-01T20:50:08.906Z,101573.53
2022-11-01T20:53:13.861Z,101578.63
2022-11-01T20:56:17.843Z,101578.47
2022-11-01T20:59:22.871Z,101571.34
2022-11-01T21:02:27.305Z,101567.09
2022-11-01T21:05:34.903Z,101566.38
2022-11-01T21:08:38.553Z,101562.94
2022-11-01T21:11:44.899Z,101568.88
2022-11-01T21:14:51.044Z,101569.91
2022-11-01T21:17:59.029Z,101569.78
2022-11-01T21:21:35.095Z,101571.81
2022-11-01T21:24:44.439Z,101571.84
2022-11-01T21:27:50.127Z,101566.44
2022-11-01T21:30:55.690Z,101568.19
2022-11-01T21:34:04.466Z,101565.56
2022-11-01T21:37:10.730Z,101554.78
2022-11-01T21:40:26.736Z,101558.25
2022-11-01T21:43:36.410Z,101561.13
2022-11-01T21:46:41.381Z,101557.56
2022-11-01T21:49:45.102Z,101556.56
2022-11-01T21:52:48.646Z,101555.88
2022-11-01T21:55:52.455Z,101557.69
2022-11-01T21:58:56.101Z,101549.91
2022-11-01T22:02:02.713Z,101549.63
2022-11-01T22:05:07.499Z,101547.13
2022-11-01T22:08:11.214Z,101543.63
2022-11-01T22:11:15.097Z,101541.69
2022-11-01T22:14:18.987Z,101538.00
2022-11-01T22:17:23.978Z,101538.06
2022-11-01T22:20:27.693Z,101541.88
2022-11-01T22:23:31.654Z,101546.19
2022-11-01T22:26:35.288Z,101537.53
2022-11-01T22:29:38.893Z,101535.13
2022-11-01T22:32:44.077Z,101523.66
2022-11-01T22:35:47.706Z,101526.81
2022-11-01T22:38:51.578Z,101512.09
2022-11-01T22:41:56.270Z,101515.69
2022-11-01T22:44:59.991Z,101508.75
2022-11-01T22:48:16.308Z,101515.03
2022-11-01T22:51:32.594Z,101519.22
2022-11-01T22:54:40.163Z,101513.25
2022-11-01T22:57:50.389Z,101515.78
2022-11-01T23:00:55.254Z,101514.16
2022-11-01T23:04:00.702Z,101514.38
2022-11-01T23:07:18.326Z,101517.75
2022-11-01T23:10:32.270Z,101512.44
2022-11-01T23:13:57.528Z,101513.19
2022-11-01T23:17:01.082Z,101520.38
2022-11-01T23:20:07.793Z,101514.31
2022-11-01T23:23:19.305Z,101516.03
2022-11-01T23:26:24.998Z,101513.34
2022-11-01T23:29:28.987Z,101512.19
2022-11-01T23:32:33.048Z,101503.16
2022-11-01T23:35:38.082Z,101504.72
2022-11-01T23:38:47.285Z,101499.38
2022-11-01T23:41:54.885Z,101497.41
2022-11-01T23:44:58.723Z,101496.56
2022-11-01T23:48:03.949Z,101487.50
2022-11-01T23:51:16.093Z,101481.44
2022-11-01T23:54:25.501Z,101477.81
2022-11-01T23:57:29.102Z,101478.78
